Lopez Island, Washington
Current Conditions -  °F | °C
As of 1:53 AM on Monday 22 Dec 2014 (Local Time) from KFHR Reporting Station
Few Clouds Few Clouds  
Wind Chill: 44°   Ceiling: Unl
Heat Index: 46°   Visibility: 10mi
Dew Point: 40°   Wind: 5mph
Humidity: 79%   Direction: 250°WSW
Pressure: 30.15"   Gusts: NA
Location:  48.51°N, 122.91°W
Report Text: KFHR 220953Z AUTO 25004KT 10SM FEW075 08/04 A3015 RMK AO2 SLP210 T00780044
Loading
Personal Weather Stations






























Interactive Weather Map New forecast layout! Learn more

10-Day Weather Forecast

Advertisements
Track Severe Weather on mobile